^^
Marion, Virginia Banner
 

Adwolf, VA. Station Historical Data
[ Providing Data Since 6/07/2007 ]
Station Historical Data
 
Daily Summary for September 21, 2017 Units:  Both    English   Metric
« Previous Day
Next Day »
Daily Weekly Monthly Yearly Custom
  Current: High: Low: Average:
Temperature: 76.7 °F /  24.8 °C 76.8 °F /  24.9 °C 55.8 °F /  13.2 °C 61.5 °F /  16.4 °C
Dew Point: 65.3 °F /  18.5 °C 66.6 °F /  19.2 °C 53.5 °F /  11.9 °C 58 °F /  14.4 °C
Humidity: 68% 92% 68% 89%
Wind Speed: 4.6mph /  7.4km/h 6.9mph /  11.1km/h - 1.6mph /  2.6km/h
Wind Gust: 4.6mph /  7.4km/h 6.9mph /  11.1km/h - -
WindNNE - - ESE
Pressure: 30.11 in /  1019.5 hPa 30.12 in /  1019.9 hPa 30.06 in /  1017.8 hPa -
Precipitation: 0.00 in /  0 mm      
Historical Graphs
 
 
Tabular Data for September 21, 2017
Time Temperature Dew Point Pressure Wind Wind Speed Wind Gust Humidity Rainfall Rate (Hourly) solar Conditions
00:01 62.2 °F /  16.8 °C 59.2 °F /  15.1 °C 30.07in /  1018.2hPa ESE 1.2mph /  1.9km/h 1.2mph /  1.9km/h 90% 0.00in /  0mm WeatherDisplay:10.37 W/m2 CLR
00:06 62.2 °F /  16.8 °C 59.2 °F /  15.1 °C 30.07in /  1018.2hPa ESE 1.2mph /  1.9km/h   90% 0.00in /  0mm WeatherDisplay:10.37 W/m2 CLR
00:11 62.0 °F /  16.7 °C 59.0 °F /  15 °C 30.07in /  1018.2hPa Calm     90% 0.00in /  0mm WeatherDisplay:10.37 W/m2 CLR
00:16 61.9 °F /  16.6 °C 58.9 °F /  14.9 °C 30.07in /  1018.2hPa ESE 1.2mph /  1.9km/h 1.2mph /  1.9km/h 90% 0.00in /  0mm WeatherDisplay:10.37 W/m2 CLR
00:21 61.8 °F /  16.6 °C 58.8 °F /  14.9 °C 30.06in /  1017.8hPa ESE 2.3mph /  3.7km/h 2.3mph /  3.7km/h 90% 0.00in /  0mm WeatherDisplay:10.37 W/m2 CLR
00:26 61.8 °F /  16.6 °C 58.8 °F /  14.9 °C 30.06in /  1017.8hPa ESE 2.3mph /  3.7km/h 2.3mph /  3.7km/h 90% 0.00in /  0mm WeatherDisplay:10.37 W/m2 CLR
00:31 61.7 °F /  16.5 °C 58.7 °F /  14.8 °C 30.06in /  1017.8hPa ESE 2.3mph /  3.7km/h 2.3mph /  3.7km/h 90% 0.00in /  0mm WeatherDisplay:10.37 W/m2 CLR
00:36 61.5 °F /  16.4 °C 58.5 °F /  14.7 °C 30.06in /  1017.8hPa ESE 1.2mph /  1.9km/h 1.2mph /  1.9km/h 90% 0.00in /  0mm WeatherDisplay:10.37 W/m2 CLR
00:41 61.3 °F /  16.3 °C 58.3 °F /  14.6 °C 30.06in /  1017.8hPa ESE 1.2mph /  1.9km/h 1.2mph /  1.9km/h 90% 0.00in /  0mm WeatherDisplay:10.37 W/m2 CLR
00:46 61.1 °F /  16.2 °C 58.1 °F /  14.5 °C 30.06in /  1017.8hPa ESE 1.2mph /  1.9km/h 1.2mph /  1.9km/h 90% 0.00in /  0mm WeatherDisplay:10.37 W/m2 CLR
00:51 60.9 °F /  16.1 °C 57.9 °F /  14.4 °C 30.06in /  1017.8hPa Calm     90% 0.00in /  0mm WeatherDisplay:10.37 W/m2 CLR
00:56 60.8 °F /  16 °C 58.1 °F /  14.5 °C 30.06in /  1017.8hPa Calm     91% 0.00in /  0mm WeatherDisplay:10.37 W/m2 CLR
01:01 60.8 °F /  16 °C 58.1 °F /  14.5 °C 30.06in /  1017.8hPa ESE 1.2mph /  1.9km/h 1.2mph /  1.9km/h 91% 0.00in /  0mm WeatherDisplay:10.37 W/m2 CLR
01:06 60.8 °F /  16 °C 58.1 °F /  14.5 °C 30.06in /  1017.8hPa ESE 1.2mph /  1.9km/h 1.2mph /  1.9km/h 91% 0.00in /  0mm WeatherDisplay:10.37 W/m2 CLR
01:11 60.7 °F /  15.9 °C 58.0 °F /  14.4 °C 30.06in /  1017.8hPa ESE 1.2mph /  1.9km/h 1.2mph /  1.9km/h 91% 0.00in /  0mm WeatherDisplay:10.37 W/m2 CLR
01:16 60.4 °F /  15.8 °C 57.7 °F /  14.3 °C 30.06in /  1017.8hPa ESE 1.2mph /  1.9km/h   91% 0.00in /  0mm WeatherDisplay:10.37 W/m2 CLR
01:21 60.4 °F /  15.8 °C 57.7 °F /  14.3 °C 30.06in /  1017.8hPa ESE 1.2mph /  1.9km/h 1.2mph /  1.9km/h 91% 0.00in /  0mm WeatherDisplay:10.37 W/m2 CLR
01:26 60.4 °F /  15.8 °C 57.7 °F /  14.3 °C 30.06in /  1017.8hPa ESE 2.3mph /  3.7km/h 2.3mph /  3.7km/h 91% 0.00in /  0mm WeatherDisplay:10.37 W/m2 CLR
01:31 60.4 °F /  15.8 °C 57.7 °F /  14.3 °C 30.06in /  1017.8hPa ESE 2.3mph /  3.7km/h 2.3mph /  3.7km/h 91% 0.00in /  0mm WeatherDisplay:10.37 W/m2 CLR
01:36 60.5 °F /  15.8 °C 57.8 °F /  14.3 °C 30.06in /  1017.8hPa ESE 1.2mph /  1.9km/h 1.2mph /  1.9km/h 91% 0.00in /  0mm WeatherDisplay:10.37 W/m2 CLR
01:41 60.5 °F /  15.8 °C 57.8 °F /  14.3 °C 30.06in /  1017.8hPa ESE 1.2mph /  1.9km/h 1.2mph /  1.9km/h 91% 0.00in /  0mm WeatherDisplay:10.37 W/m2 CLR
01:46 60.4 °F /  15.8 °C 57.7 °F /  14.3 °C 30.06in /  1017.8hPa ESE 1.2mph /  1.9km/h 1.2mph /  1.9km/h 91% 0.00in /  0mm WeatherDisplay:10.37 W/m2 CLR
01:47 60.4 °F /  15.8 °C 57.7 °F /  14.3 °C 30.06in /  1017.8hPa ESE 1.2mph /  1.9km/h 1.2mph /  1.9km/h 91% 0.00in /  0mm WeatherDisplay:10.37 W/m2 CLR
01:52 60.2 °F /  15.7 °C 57.5 °F /  14.2 °C 30.06in /  1017.8hPa ESE 1.2mph /  1.9km/h 1.2mph /  1.9km/h 91% 0.00in /  0mm WeatherDisplay:10.37 W/m2 CLR
01:57 60.0 °F /  15.6 °C 57.3 °F /  14.1 °C 30.06in /  1017.8hPa ESE 1.2mph /  1.9km/h 1.2mph /  1.9km/h 91% 0.00in /  0mm WeatherDisplay:10.37 W/m2 CLR
02:02 59.9 °F /  15.5 °C 57.2 °F /  14 °C 30.06in /  1017.8hPa ESE 2.0mph /  3.2km/h 2.0mph /  3.2km/h 91% 0.00in /  0mm WeatherDisplay:10.37 W/m2 CLR
02:07 59.9 °F /  15.5 °C 57.2 °F /  14 °C 30.06in /  1017.8hPa ESE 1.2mph /  1.9km/h 1.2mph /  1.9km/h 91% 0.00in /  0mm WeatherDisplay:10.37 W/m2 CLR
02:12 60.0 °F /  15.6 °C 57.3 °F /  14.1 °C 30.06in /  1017.8hPa ESE 3.0mph /  4.8km/h 3.0mph /  4.8km/h 91% 0.00in /  0mm WeatherDisplay:10.37 W/m2 CLR
02:17 60.0 °F /  15.6 °C 57.3 °F /  14.1 °C 30.06in /  1017.8hPa ESE 2.3mph /  3.7km/h 2.3mph /  3.7km/h 91% 0.00in /  0mm WeatherDisplay:10.37 W/m2 CLR
02:22 60.0 °F /  15.6 °C 57.3 °F /  14.1 °C 30.06in /  1017.8hPa ESE 2.3mph /  3.7km/h 2.3mph /  3.7km/h 91% 0.00in /  0mm WeatherDisplay:10.37 W/m2 CLR
02:27 60.0 °F /  15.6 °C 57.3 °F /  14.1 °C 30.06in /  1017.8hPa ESE 3.0mph /  4.8km/h 3.0mph /  4.8km/h 91% 0.00in /  0mm WeatherDisplay:10.37 W/m2 CLR
02:32 60.0 °F /  15.6 °C 57.3 °F /  14.1 °C 30.06in /  1017.8hPa ESE 3.5mph /  5.6km/h 3.5mph /  5.6km/h 91% 0.00in /  0mm WeatherDisplay:10.37 W/m2 CLR
02:37 59.9 °F /  15.5 °C 57.2 °F /  14 °C 30.06in /  1017.8hPa ESE 3.5mph /  5.6km/h 3.5mph /  5.6km/h 91% 0.00in /  0mm WeatherDisplay:10.37 W/m2 CLR
02:42 59.8 °F /  15.4 °C 57.1 °F /  13.9 °C 30.06in /  1017.8hPa ESE 2.3mph /  3.7km/h 2.3mph /  3.7km/h 91% 0.00in /  0mm WeatherDisplay:10.37 W/m2 CLR
02:47 59.7 °F /  15.4 °C 57.0 °F /  13.9 °C 30.06in /  1017.8hPa ESE 2.3mph /  3.7km/h   91% 0.00in /  0mm WeatherDisplay:10.37 W/m2 CLR
02:52 59.6 °F /  15.3 °C 56.9 °F /  13.8 °C 30.06in /  1017.8hPa Calm     91% 0.00in /  0mm WeatherDisplay:10.37 W/m2 CLR
02:57 59.5 °F /  15.3 °C 56.8 °F /  13.8 °C 30.06in /  1017.8hPa ESE 1.2mph /  1.9km/h 1.2mph /  1.9km/h 91% 0.00in /  0mm WeatherDisplay:10.37 W/m2 CLR
03:02 59.3 °F /  15.2 °C 56.6 °F /  13.7 °C 30.06in /  1017.8hPa ESE 1.2mph /  1.9km/h   91% 0.00in /  0mm WeatherDisplay:10.37 W/m2 CLR
03:07 59.2 °F /  15.1 °C 56.5 °F /  13.6 °C 30.06in /  1017.8hPa Calm     91% 0.00in /  0mm WeatherDisplay:10.37 W/m2 CLR
03:12 59.2 °F /  15.1 °C 56.5 °F /  13.6 °C 30.06in /  1017.8hPa ESE 3.0mph /  4.8km/h 3.0mph /  4.8km/h 91% 0.00in /  0mm WeatherDisplay:10.37 W/m2 CLR
03:17 59.3 °F /  15.2 °C 56.6 °F /  13.7 °C 30.06in /  1017.8hPa ESE 2.3mph /  3.7km/h 2.3mph /  3.7km/h 91% 0.00in /  0mm WeatherDisplay:10.37 W/m2 CLR
03:22 59.4 °F /  15.2 °C 56.7 °F /  13.7 °C 30.06in /  1017.8hPa ESE 2.3mph /  3.7km/h 2.3mph /  3.7km/h 91% 0.00in /  0mm WeatherDisplay:10.37 W/m2 CLR
03:27 59.4 °F /  15.2 °C 56.7 °F /  13.7 °C 30.06in /  1017.8hPa ESE 2.3mph /  3.7km/h 2.3mph /  3.7km/h 91% 0.00in /  0mm WeatherDisplay:10.37 W/m2 CLR
03:29 59.4 °F /  15.2 °C 56.7 °F /  13.7 °C 30.06in /  1017.8hPa ESE 2.3mph /  3.7km/h 2.3mph /  3.7km/h 91% 0.00in /  0mm WeatherDisplay:10.37 W/m2 CLR
03:34 59.3 °F /  15.2 °C 56.6 °F /  13.7 °C 30.06in /  1017.8hPa Calm     91% 0.00in /  0mm WeatherDisplay:10.37 W/m2 CLR
03:39 59.2 °F /  15.1 °C 56.8 °F /  13.8 °C 30.06in /  1017.8hPa ESE 1.2mph /  1.9km/h 1.2mph /  1.9km/h 92% 0.00in /  0mm WeatherDisplay:10.37 W/m2 CLR
03:40 59.1 °F /  15.1 °C 56.7 °F /  13.7 °C 30.06in /  1017.8hPa ESE 1.2mph /  1.9km/h 1.2mph /  1.9km/h 92% 0.00in /  0mm WeatherDisplay:10.37 W/m2 CLR
03:45 59.0 °F /  15 °C 56.3 °F /  13.5 °C 30.06in /  1017.8hPa ESE 1.2mph /  1.9km/h 1.2mph /  1.9km/h 91% 0.00in /  0mm WeatherDisplay:10.37 W/m2 CLR
03:50 58.8 °F /  14.9 °C 56.1 °F /  13.4 °C 30.06in /  1017.8hPa Calm     91% 0.00in /  0mm WeatherDisplay:10.37 W/m2 CLR
03:55 58.6 °F /  14.8 °C 55.9 °F /  13.3 °C 30.06in /  1017.8hPa ESE 2.0mph /  3.2km/h 2.0mph /  3.2km/h 91% 0.00in /  0mm WeatherDisplay:10.37 W/m2 CLR
04:00 58.5 °F /  14.7 °C 56.1 °F /  13.4 °C 30.07in /  1018.2hPa ESE 2.3mph /  3.7km/h 2.3mph /  3.7km/h 92% 0.00in /  0mm WeatherDisplay:10.37 W/m2 CLR
04:05 58.4 °F /  14.7 °C 56.0 °F /  13.3 °C 30.07in /  1018.2hPa Calm     92% 0.00in /  0mm WeatherDisplay:10.37 W/m2 CLR
04:10 58.3 °F /  14.6 °C 55.9 °F /  13.3 °C 30.07in /  1018.2hPa Calm     92% 0.00in /  0mm WeatherDisplay:10.37 W/m2 CLR
04:15 58.2 °F /  14.6 °C 55.5 °F /  13.1 °C 30.07in /  1018.2hPa ESE 1.0mph /  1.6km/h   91% 0.00in /  0mm WeatherDisplay:10.37 W/m2 CLR
04:20 58.0 °F /  14.4 °C 55.3 °F /  12.9 °C 30.07in /  1018.2hPa ESE 1.2mph /  1.9km/h 1.2mph /  1.9km/h 91% 0.00in /  0mm WeatherDisplay:10.37 W/m2 CLR
04:25 57.7 °F /  14.3 °C 55.4 °F /  13 °C 30.07in /  1018.2hPa ESE 1.2mph /  1.9km/h 1.2mph /  1.9km/h 92% 0.00in /  0mm WeatherDisplay:10.37 W/m2 CLR
04:30 57.7 °F /  14.3 °C 55.4 °F /  13 °C 30.07in /  1018.2hPa Calm     92% 0.00in /  0mm WeatherDisplay:10.37 W/m2 CLR
04:35 57.7 °F /  14.3 °C 55.4 °F /  13 °C 30.07in /  1018.2hPa Calm     92% 0.00in /  0mm WeatherDisplay:10.37 W/m2 CLR
04:40 57.6 °F /  14.2 °C 55.3 °F /  12.9 °C 30.07in /  1018.2hPa ESE 1.2mph /  1.9km/h 1.2mph /  1.9km/h 92% 0.00in /  0mm WeatherDisplay:10.37 W/m2 CLR
04:45 57.4 °F /  14.1 °C 55.1 °F /  12.8 °C 30.07in /  1018.2hPa ESE 1.2mph /  1.9km/h 1.2mph /  1.9km/h 92% 0.00in /  0mm WeatherDisplay:10.37 W/m2 CLR
04:50 57.3 °F /  14.1 °C 55.0 °F /  12.8 °C 30.07in /  1018.2hPa Calm     92% 0.00in /  0mm WeatherDisplay:10.37 W/m2 CLR
04:55 57.3 °F /  14.1 °C 55.0 °F /  12.8 °C 30.07in /  1018.2hPa Calm     92% 0.00in /  0mm WeatherDisplay:10.37 W/m2 CLR
05:00 57.2 °F /  14 °C 54.9 °F /  12.7 °C 30.07in /  1018.2hPa Calm     92% 0.00in /  0mm WeatherDisplay:10.37 W/m2 CLR
05:05 57.1 °F /  13.9 °C 54.8 °F /  12.7 °C 30.07in /  1018.2hPa ESE 1.2mph /  1.9km/h   92% 0.00in /  0mm WeatherDisplay:10.37 W/m2 CLR
05:10 57.0 °F /  13.9 °C 54.7 °F /  12.6 °C 30.07in /  1018.2hPa ESE 1.2mph /  1.9km/h 1.2mph /  1.9km/h 92% 0.00in /  0mm WeatherDisplay:10.37 W/m2 CLR
05:15 56.9 °F /  13.8 °C 54.6 °F /  12.6 °C 30.08in /  1018.5hPa ESE 1.2mph /  1.9km/h 1.2mph /  1.9km/h 92% 0.00in /  0mm WeatherDisplay:10.37 W/m2 CLR
05:20 56.8 °F /  13.8 °C 54.5 °F /  12.5 °C 30.08in /  1018.5hPa Calm     92% 0.00in /  0mm WeatherDisplay:10.37 W/m2 CLR
05:25 56.7 °F /  13.7 °C 54.4 °F /  12.4 °C 30.08in /  1018.5hPa Calm     92% 0.00in /  0mm WeatherDisplay:10.37 W/m2 SCT
05:30 56.6 °F /  13.7 °C 54.3 °F /  12.4 °C 30.08in /  1018.5hPa ESE 1.2mph /  1.9km/h 1.2mph /  1.9km/h 92% 0.00in /  0mm WeatherDisplay:10.37 W/m2 SCT
05:35 56.5 °F /  13.6 °C 54.2 °F /  12.3 °C 30.08in /  1018.5hPa Calm     92% 0.00in /  0mm WeatherDisplay:10.37 W/m2 SCT
05:40 56.6 °F /  13.7 °C 54.3 °F /  12.4 °C 30.08in /  1018.5hPa Calm     92% 0.00in /  0mm WeatherDisplay:10.37 W/m2 SCT
05:45 56.5 °F /  13.6 °C 54.2 °F /  12.3 °C 30.08in /  1018.5hPa ESE 1.2mph /  1.9km/h 1.2mph /  1.9km/h 92% 0.00in /  0mm WeatherDisplay:10.37 W/m2 SCT
05:50 56.5 °F /  13.6 °C 54.2 °F /  12.3 °C 30.08in /  1018.5hPa ESE 2.3mph /  3.7km/h 2.3mph /  3.7km/h 92% 0.00in /  0mm WeatherDisplay:10.37 W/m2 SCT
05:55 56.5 °F /  13.6 °C 54.2 °F /  12.3 °C 30.08in /  1018.5hPa ESE 1.2mph /  1.9km/h   92% 0.00in /  0mm WeatherDisplay:10.37 W/m2 SCT
06:00 56.5 °F /  13.6 °C 54.2 °F /  12.3 °C 30.08in /  1018.5hPa ESE 1.2mph /  1.9km/h 1.2mph /  1.9km/h 92% 0.00in /  0mm WeatherDisplay:10.37 W/m2 SCT
06:05 56.6 °F /  13.7 °C 54.3 °F /  12.4 °C 30.09in /  1018.8hPa ESE 1.2mph /  1.9km/h 1.2mph /  1.9km/h 92% 0.00in /  0mm WeatherDisplay:10.37 W/m2 SCT
06:10 56.6 °F /  13.7 °C 54.3 °F /  12.4 °C 30.09in /  1018.8hPa Calm     92% 0.00in /  0mm WeatherDisplay:10.37 W/m2 SCT
06:15 56.7 °F /  13.7 °C 54.4 °F /  12.4 °C 30.09in /  1018.8hPa Calm     92% 0.00in /  0mm WeatherDisplay:10.37 W/m2 SCT
06:20 56.7 °F /  13.7 °C 54.4 °F /  12.4 °C 30.09in /  1018.8hPa Calm     92% 0.00in /  0mm WeatherDisplay:10.37 W/m2 SCT
06:25 56.7 °F /  13.7 °C 54.4 °F /  12.4 °C 30.10in /  1019.2hPa Calm     92% 0.00in /  0mm WeatherDisplay:10.37 W/m2 SCT
06:30 56.7 °F /  13.7 °C 54.4 °F /  12.4 °C 30.09in /  1018.8hPa ESE 1.2mph /  1.9km/h 1.2mph /  1.9km/h 92% 0.00in /  0mm WeatherDisplay:10.37 W/m2 SCT
06:35 56.8 °F /  13.8 °C 54.5 °F /  12.5 °C 30.10in /  1019.2hPa Calm     92% 0.00in /  0mm WeatherDisplay:10.37 W/m2 SCT
06:40 56.7 °F /  13.7 °C 54.4 °F /  12.4 °C 30.09in /  1018.8hPa Calm     92% 0.00in /  0mm WeatherDisplay:10.37 W/m2 SCT
06:45 56.6 °F /  13.7 °C 54.3 °F /  12.4 °C 30.09in /  1018.8hPa ESE 1.2mph /  1.9km/h 1.2mph /  1.9km/h 92% 0.00in /  0mm WeatherDisplay:10.37 W/m2 CLR
06:50 56.4 °F /  13.6 °C 54.1 °F /  12.3 °C 30.09in /  1018.8hPa Calm     92% 0.00in /  0mm WeatherDisplay:10.37 W/m2 CLR
06:55 56.3 °F /  13.5 °C 54.0 °F /  12.2 °C 30.10in /  1019.2hPa Calm     92% 0.00in /  0mm WeatherDisplay:10.37 W/m2 CLR
07:00 56.1 °F /  13.4 °C 53.8 °F /  12.1 °C 30.09in /  1018.8hPa Calm     92% 0.00in /  0mm WeatherDisplay:10.37 W/m2 CLR
07:05 56.0 °F /  13.3 °C 53.7 °F /  12.1 °C 30.09in /  1018.8hPa Calm     92% 0.00in /  0mm WeatherDisplay:10.37 W/m2 CLR
07:10 55.9 °F /  13.3 °C 53.6 °F /  12 °C 30.10in /  1019.2hPa Calm     92% 0.00in /  0mm WeatherDisplay:10.37 W/m2 CLR
07:15 55.9 °F /  13.3 °C 53.6 °F /  12 °C 30.10in /  1019.2hPa Calm     92% 0.00in /  0mm WeatherDisplay:10.37 W/m2 CLR
07:20 55.9 °F /  13.3 °C 53.6 °F /  12 °C 30.10in /  1019.2hPa Calm     92% 0.00in /  0mm WeatherDisplay:10.37 W/m2 CLR
07:25 55.9 °F /  13.3 °C 53.6 °F /  12 °C 30.10in /  1019.2hPa Calm     92% 0.00in /  0mm WeatherDisplay:10.37 W/m2 CLR
07:30 55.8 °F /  13.2 °C 53.5 °F /  11.9 °C 30.10in /  1019.2hPa Calm     92% 0.00in /  0mm WeatherDisplay:10.37 W/m2 CLR
07:35 55.8 °F /  13.2 °C 53.5 °F /  11.9 °C 30.10in /  1019.2hPa Calm     92% 0.00in /  0mm WeatherDisplay:10.37 W/m2 CLR
07:40 55.9 °F /  13.3 °C 53.6 °F /  12 °C 30.10in /  1019.2hPa Calm     92% 0.00in /  0mm WeatherDisplay:10.37 W/m2 CLR
07:45 56.0 °F /  13.3 °C 53.7 °F /  12.1 °C 30.11in /  1019.5hPa Calm     92% 0.00in /  0mm WeatherDisplay:10.37 W/m2 CLR
07:50 56.5 °F /  13.6 °C 54.2 °F /  12.3 °C 30.10in /  1019.2hPa Calm     92% 0.00in /  0mm WeatherDisplay:10.37 W/m2 CLR
07:55 56.9 °F /  13.8 °C 54.6 °F /  12.6 °C 30.10in /  1019.2hPa Calm     92% 0.00in /  0mm WeatherDisplay:10.37 W/m2 CLR
08:00 57.2 °F /  14 °C 54.9 °F /  12.7 °C 30.10in /  1019.2hPa Calm     92% 0.00in /  0mm WeatherDisplay:10.37 W/m2 CLR
08:05 57.5 °F /  14.2 °C 55.2 °F /  12.9 °C 30.11in /  1019.5hPa Calm     92% 0.00in /  0mm WeatherDisplay:10.37 W/m2 CLR
08:10 57.9 °F /  14.4 °C 55.6 °F /  13.1 °C 30.10in /  1019.2hPa Calm     92% 0.00in /  0mm WeatherDisplay:10.37 W/m2 CLR
08:15 58.2 °F /  14.6 °C 55.8 °F /  13.2 °C 30.11in /  1019.5hPa Calm     92% 0.00in /  0mm WeatherDisplay:10.37 W/m2 CLR
08:20 58.5 °F /  14.7 °C 56.1 °F /  13.4 °C 30.11in /  1019.5hPa Calm     92% 0.00in /  0mm WeatherDisplay:10.37 W/m2 CLR
08:25 58.8 °F /  14.9 °C 56.4 °F /  13.6 °C 30.11in /  1019.5hPa Calm     92% 0.00in /  0mm WeatherDisplay:10.37 W/m2 CLR
08:30 59.2 °F /  15.1 °C 56.8 °F /  13.8 °C 30.11in /  1019.5hPa Calm     92% 0.00in /  0mm WeatherDisplay:10.37 W/m2 CLR
08:35 59.6 °F /  15.3 °C 57.2 °F /  14 °C 30.11in /  1019.5hPa Calm     92% 0.00in /  0mm WeatherDisplay:10.37 W/m2 CLR
08:40 60.0 °F /  15.6 °C 57.6 °F /  14.2 °C 30.11in /  1019.5hPa NE 3.5mph /  5.6km/h 3.5mph /  5.6km/h 92% 0.00in /  0mm WeatherDisplay:10.37 W/m2 CLR
08:45 60.6 °F /  15.9 °C 58.2 °F /  14.6 °C 30.11in /  1019.5hPa NE 3.5mph /  5.6km/h 3.5mph /  5.6km/h 92% 0.00in /  0mm WeatherDisplay:10.37 W/m2 CLR
08:50 61.2 °F /  16.2 °C 58.8 °F /  14.9 °C 30.11in /  1019.5hPa ENE 3.5mph /  5.6km/h 3.5mph /  5.6km/h 92% 0.00in /  0mm WeatherDisplay:10.37 W/m2 CLR
08:55 61.7 °F /  16.5 °C 59.0 °F /  15 °C 30.11in /  1019.5hPa ENE 2.3mph /  3.7km/h 2.3mph /  3.7km/h 91% 0.00in /  0mm WeatherDisplay:10.37 W/m2 CLR
09:00 62.1 °F /  16.7 °C 59.4 °F /  15.2 °C 30.11in /  1019.5hPa ENE 2.3mph /  3.7km/h 2.3mph /  3.7km/h 91% 0.00in /  0mm WeatherDisplay:10.37 W/m2 CLR
09:05 62.7 °F /  17.1 °C 60.0 °F /  15.6 °C 30.11in /  1019.5hPa ENE 1.2mph /  1.9km/h 1.2mph /  1.9km/h 91% 0.00in /  0mm WeatherDisplay:10.37 W/m2 CLR
09:10 63.4 °F /  17.4 °C 60.7 °F /  15.9 °C 30.11in /  1019.5hPa ENE 3.0mph /  4.8km/h 3.0mph /  4.8km/h 91% 0.00in /  0mm WeatherDisplay:10.37 W/m2 CLR
09:15 64.1 °F /  17.8 °C 61.1 °F /  16.2 °C 30.11in /  1019.5hPa ENE 2.3mph /  3.7km/h 2.3mph /  3.7km/h 90% 0.00in /  0mm WeatherDisplay:10.37 W/m2 CLR
09:20 64.8 °F /  18.2 °C 61.8 °F /  16.6 °C 30.12in /  1019.9hPa ENE 1.2mph /  1.9km/h 1.2mph /  1.9km/h 90% 0.00in /  0mm WeatherDisplay:10.37 W/m2 CLR
09:25 65.4 °F /  18.6 °C 61.7 °F /  16.5 °C 30.12in /  1019.9hPa ENE 3.0mph /  4.8km/h 3.0mph /  4.8km/h 88% 0.00in /  0mm WeatherDisplay:10.37 W/m2 CLR
09:30 65.8 °F /  18.8 °C 62.1 °F /  16.7 °C 30.11in /  1019.5hPa ENE 3.5mph /  5.6km/h 3.5mph /  5.6km/h 88% 0.00in /  0mm WeatherDisplay:10.37 W/m2 CLR
09:35 66.4 °F /  19.1 °C 62.4 °F /  16.9 °C 30.12in /  1019.9hPa ENE 3.5mph /  5.6km/h 3.5mph /  5.6km/h 87% 0.00in /  0mm WeatherDisplay:10.37 W/m2 CLR
09:40 67.0 °F /  19.4 °C 63.0 °F /  17.2 °C 30.12in /  1019.9hPa ENE 3.5mph /  5.6km/h 3.5mph /  5.6km/h 87% 0.00in /  0mm WeatherDisplay:10.37 W/m2 CLR
09:45 67.7 °F /  19.8 °C 63.3 °F /  17.4 °C 30.12in /  1019.9hPa ENE 3.5mph /  5.6km/h 3.5mph /  5.6km/h 86% 0.00in /  0mm WeatherDisplay:10.37 W/m2 CLR
09:50 68.3 °F /  20.2 °C 63.6 °F /  17.6 °C 30.12in /  1019.9hPa ENE 3.5mph /  5.6km/h 3.5mph /  5.6km/h 85% 0.00in /  0mm WeatherDisplay:10.37 W/m2 CLR
09:55 68.7 °F /  20.4 °C 64.0 °F /  17.8 °C 30.12in /  1019.9hPa ENE 3.5mph /  5.6km/h 3.5mph /  5.6km/h 85% 0.00in /  0mm WeatherDisplay:10.37 W/m2 CLR
10:00 69.5 °F /  20.8 °C 63.7 °F /  17.6 °C 30.12in /  1019.9hPa WNW 2.3mph /  3.7km/h 2.3mph /  3.7km/h 82% 0.00in /  0mm WeatherDisplay:10.37 W/m2 CLR
10:05 69.9 °F /  21.1 °C 63.8 °F /  17.7 °C 30.12in /  1019.9hPa SW 5.0mph /  8km/h 5.0mph /  8km/h 81% 0.00in /  0mm WeatherDisplay:10.37 W/m2 CLR
10:10 70.8 °F /  21.6 °C 64.6 °F /  18.1 °C 30.12in /  1019.9hPa South 3.5mph /  5.6km/h 3.5mph /  5.6km/h 81% 0.00in /  0mm WeatherDisplay:10.37 W/m2 SCT
10:15 71.3 °F /  21.8 °C 64.0 °F /  17.8 °C 30.12in /  1019.9hPa WSW 3.5mph /  5.6km/h 3.5mph /  5.6km/h 78% 0.00in /  0mm WeatherDisplay:10.37 W/m2 SCT
10:20 71.9 °F /  22.2 °C 64.6 °F /  18.1 °C 30.12in /  1019.9hPa WSW 3.0mph /  4.8km/h 3.0mph /  4.8km/h 78% 0.00in /  0mm WeatherDisplay:10.37 W/m2 SCT
10:25 72.4 °F /  22.4 °C 65.1 °F /  18.4 °C 30.12in /  1019.9hPa SSW 5.0mph /  8km/h 5.0mph /  8km/h 78% 0.00in /  0mm WeatherDisplay:10.37 W/m2 BKN
10:30 72.7 °F /  22.6 °C 65.0 °F /  18.3 °C 30.12in /  1019.9hPa SSW 3.5mph /  5.6km/h 3.5mph /  5.6km/h 77% 0.00in /  0mm WeatherDisplay:10.37 W/m2 BKN
10:35 72.9 °F /  22.7 °C 65.2 °F /  18.4 °C 30.12in /  1019.9hPa SW 3.5mph /  5.6km/h 3.5mph /  5.6km/h 77% 0.00in /  0mm WeatherDisplay:10.37 W/m2 BKN
10:40 73.4 °F /  23 °C 65.3 °F /  18.5 °C 30.12in /  1019.9hPa SW 3.5mph /  5.6km/h 3.5mph /  5.6km/h 76% 0.00in /  0mm WeatherDisplay:10.37 W/m2 BKN
10:45 73.7 °F /  23.2 °C 65.2 °F /  18.4 °C 30.12in /  1019.9hPa SW 3.5mph /  5.6km/h 3.5mph /  5.6km/h 75% 0.00in /  0mm WeatherDisplay:10.37 W/m2 BKN
10:50 74.3 °F /  23.5 °C 65.8 °F /  18.8 °C 30.12in /  1019.9hPa SW 2.3mph /  3.7km/h 2.3mph /  3.7km/h 75% 0.00in /  0mm WeatherDisplay:10.37 W/m2 BKN
10:55 75.0 °F /  23.9 °C 66.1 °F /  18.9 °C 30.11in /  1019.5hPa SSW 3.5mph /  5.6km/h 3.5mph /  5.6km/h 74% 0.00in /  0mm WeatherDisplay:10.37 W/m2 BKN
11:00 75.5 °F /  24.2 °C 66.2 °F /  19 °C 30.11in /  1019.5hPa SW 3.5mph /  5.6km/h 3.5mph /  5.6km/h 73% 0.00in /  0mm WeatherDisplay:10.37 W/m2 BKN
11:05 75.9 °F /  24.4 °C 66.2 °F /  19 °C 30.11in /  1019.5hPa NNE 3.5mph /  5.6km/h 3.5mph /  5.6km/h 72% 0.00in /  0mm WeatherDisplay:10.37 W/m2 SCT
11:10 76.0 °F /  24.4 °C 66.3 °F /  19.1 °C 30.11in /  1019.5hPa WSW 6.9mph /  11.1km/h 6.9mph /  11.1km/h 72% 0.00in /  0mm WeatherDisplay:10.37 W/m2 SCT
11:15 76.5 °F /  24.7 °C 66.4 °F /  19.1 °C 30.11in /  1019.5hPa North 6.9mph /  11.1km/h 6.9mph /  11.1km/h 71% 0.00in /  0mm WeatherDisplay:10.37 W/m2 SCT
11:20 76.8 °F /  24.9 °C 66.6 °F /  19.2 °C 30.11in /  1019.5hPa WSW 4.6mph /  7.4km/h 4.6mph /  7.4km/h 71% 0.00in /  0mm WeatherDisplay:10.37 W/m2 SCT
11:25 76.8 °F /  24.9 °C 66.2 °F /  19 °C 30.11in /  1019.5hPa South 4.6mph /  7.4km/h 4.6mph /  7.4km/h 70% 0.00in /  0mm WeatherDisplay:10.37 W/m2 BKN
11:30 76.5 °F /  24.7 °C 66.4 °F /  19.1 °C 30.11in /  1019.5hPa West 4.6mph /  7.4km/h 4.6mph /  7.4km/h 71% 0.00in /  0mm WeatherDisplay:10.37 W/m2 BKN
11:35 76.7 °F /  24.8 °C 65.7 °F /  18.7 °C 30.11in /  1019.5hPa North 3.5mph /  5.6km/h 3.5mph /  5.6km/h 69% 0.00in /  0mm WeatherDisplay:10.37 W/m2 BKN
11:40 76.7 °F /  24.8 °C 65.3 °F /  18.5 °C 30.11in /  1019.5hPa NNE 4.6mph /  7.4km/h 4.6mph /  7.4km/h 68% 0.00in /  0mm WeatherDisplay:10.37 W/m2 BKN
Smyth Weather
Compliments of Weather Underground - 2.25 mb